< < Back
Terminal Aerodrome Forecast


Current Version              Previous Versions:   1  2  3  4  5  6  7  8  9  

Terminal Aerodrome Forecast

883
FTUS44 KBMX 011738
TAFMGM
TAF
KMGM 011738Z 0118/0218 27005KT P6SM BKN040
     FM020000 14002KT P6SM SCT040 BKN100
     FM020900 00000KT 3SM BR BKN008
     FM021400 16008KT P6SM SCT025 BKN040=



Latest METAR

707
SAUS80 KWBC 012200 RRE
MTRMGM
METAR KMGM 012153Z 20005KT 10SM CLR 29/13 A2999 RMK AO2 SLP152
T02940128


USA.gov is the U.S. government's official web portal to all federal, state and local government web resources and services.